Time;durP1;ratioP1;P1;durP2;ratioP2;P2;SDS_P1;SDS_P2;PMS_P1;PMS_P2;Temp;Humidity;BMP_temperature;BMP_pressure;BME280_temperature;BME280_humidity;BME280_pressure;Samples;Min_cycle;Max_cycle;Signal;HPM_P1;HPM_P2
2021/08/29 00:00:29;;;;;;;28.40;7.57;;;;;;;;;;143732;603;46022;-91
2021/08/29 00:02:56;;;;;;;12.50;6.75;;;;;;;;;;143731;879;46918;-89
2021/08/29 00:05:23;;;;;;;15.38;6.87;;;;;;;;;;143732;822;46021;-89
2021/08/29 00:07:50;;;;;;;15.90;6.93;;;;;;;;;;143735;618;46020;-90
2021/08/29 00:10:17;;;;;;;14.98;6.32;;;;;;;;;;143732;584;46022;-90
2021/08/29 00:12:45;;;;;;;14.27;7.30;;;;;;;;;;143733;646;46011;-91
2021/08/29 00:15:13;;;;;;;14.18;6.57;;;;;;;;;;143734;625;46020;-89
2021/08/29 00:17:43;;;;;;;16.15;7.00;;;;;;;;;;143737;572;46010;-90
2021/08/29 00:20:13;;;;;;;14.98;6.03;;;;;;;;;;143737;677;45023;-90
2021/08/29 00:22:44;;;;;;;17.48;6.60;;;;;;;;;;143733;579;46020;-91
2021/08/29 00:25:16;;;;;;;15.20;6.30;;;;;;;;;;143734;617;46020;-90
2021/08/29 00:27:45;;;;;;;18.85;6.75;;;;;;;;;;143735;822;46018;-89
2021/08/29 00:30:15;;;;;;;13.07;6.40;;;;;;;;;;143734;605;46020;-90
2021/08/29 00:32:42;;;;;;;18.70;7.65;;;;;;;;;;143731;599;46012;-90
2021/08/29 00:35:09;;;;;;;16.45;6.65;;;;;;;;;;143735;586;46021;-88
2021/08/29 00:37:35;;;;;;;12.80;6.18;;;;;;;;;;143734;576;47012;-90
2021/08/29 00:40:03;;;;;;;20.27;7.12;;;;;;;;;;143731;586;47020;-91
2021/08/29 00:42:29;;;;;;;18.55;7.50;;;;;;;;;;143730;570;46011;-90
2021/08/29 00:44:56;;;;;;;11.98;5.55;;;;;;;;;;143734;591;46020;-90
2021/08/29 00:47:22;;;;;;;13.70;7.25;;;;;;;;;;143738;592;46020;-89
2021/08/29 00:49:49;;;;;;;15.38;7.47;;;;;;;;;;143736;578;46021;-91
2021/08/29 00:52:17;;;;;;;15.20;6.65;;;;;;;;;;143732;605;46010;-88
2021/08/29 00:54:43;;;;;;;13.55;6.68;;;;;;;;;;143732;566;46020;-91
2021/08/29 00:57:11;;;;;;;8.18;5.85;;;;;;;;;;143735;582;46010;-90
2021/08/29 00:59:38;;;;;;;11.50;6.10;;;;;;;;;;143727;622;48020;-89
2021/08/29 01:02:14;;;;;;;13.82;5.78;;;;;;;;;;143733;571;46020;-90
2021/08/29 01:05:07;;;;;;;11.30;5.93;;;;;;;;;;143734;574;46021;-89
2021/08/29 01:07:47;;;;;;;11.32;4.97;;;;;;;;;;143734;716;46010;-89
2021/08/29 01:10:22;;;;;;;14.13;5.62;;;;;;;;;;143730;591;47022;-90
2021/08/29 01:12:53;;;;;;;16.60;5.28;;;;;;;;;;143732;643;46010;-91
2021/08/29 01:15:26;;;;;;;13.35;5.78;;;;;;;;;;143733;577;46020;-90
2021/08/29 01:17:56;;;;;;;10.65;5.20;;;;;;;;;;143733;616;46011;-92
2021/08/29 01:20:44;;;;;;;14.30;5.07;;;;;;;;;;143732;639;46023;-92
2021/08/29 01:23:11;;;;;;;14.25;5.55;;;;;;;;;;143731;587;46010;-88
2021/08/29 01:25:48;;;;;;;10.52;5.40;;;;;;;;;;143734;569;46020;-90
2021/08/29 01:28:16;;;;;;;10.75;5.87;;;;;;;;;;143735;641;46010;-91
2021/08/29 01:30:45;;;;;;;17.48;5.20;;;;;;;;;;143733;571;46014;-90
2021/08/29 01:33:13;;;;;;;8.60;5.70;;;;;;;;;;143732;596;46010;-94
2021/08/29 01:35:41;;;;;;;8.73;4.70;;;;;;;;;;143734;600;46021;-90
2021/08/29 01:38:09;;;;;;;7.60;4.50;;;;;;;;;;143733;605;46012;-88
2021/08/29 01:40:37;;;;;;;14.25;5.43;;;;;;;;;;143731;597;47022;-90
2021/08/29 01:43:07;;;;;;;10.82;4.65;;;;;;;;;;143731;572;46010;-91
2021/08/29 01:45:34;;;;;;;9.43;4.22;;;;;;;;;;143733;641;46020;-90
2021/08/29 01:48:03;;;;;;;13.05;4.87;;;;;;;;;;143734;671;46010;-91
2021/08/29 01:50:30;;;;;;;8.00;4.00;;;;;;;;;;143732;565;46023;-89
2021/08/29 01:52:56;;;;;;;11.95;5.05;;;;;;;;;;143731;588;46010;-89
2021/08/29 01:55:23;;;;;;;14.27;4.70;;;;;;;;;;143731;616;48012;-89
2021/08/29 01:57:49;;;;;;;15.65;5.45;;;;;;;;;;143734;585;46010;-90
2021/08/29 02:00:18;;;;;;;9.15;4.65;;;;;;;;;;143734;590;46014;-90
2021/08/29 02:02:44;;;;;;;12.45;5.22;;;;;;;;;;143734;607;45918;-89
2021/08/29 02:05:11;;;;;;;8.85;4.72;;;;;;;;;;143733;600;46021;-90
2021/08/29 02:07:43;;;;;;;10.57;4.78;;;;;;;;;;143735;589;46020;-90
2021/08/29 02:10:11;;;;;;;10.45;5.18;;;;;;;;;;143729;591;47022;-89
2021/08/29 02:12:46;;;;;;;9.10;5.15;;;;;;;;;;143732;575;46020;-92
2021/08/29 02:15:16;;;;;;;10.70;5.62;;;;;;;;;;143737;576;46012;-91
2021/08/29 02:17:43;;;;;;;6.70;4.12;;;;;;;;;;143738;627;45021;-88
2021/08/29 02:20:17;;;;;;;6.57;3.92;;;;;;;;;;143732;626;46023;-92
2021/08/29 02:22:44;;;;;;;5.90;4.68;;;;;;;;;;143733;634;46010;-90
2021/08/29 02:25:11;;;;;;;16.48;5.22;;;;;;;;;;143734;622;46020;-91
2021/08/29 02:27:40;;;;;;;12.35;5.07;;;;;;;;;;143735;574;46035;-90
2021/08/29 02:30:08;;;;;;;11.25;4.53;;;;;;;;;;143731;580;47022;-90
2021/08/29 02:32:40;;;;;;;9.85;4.30;;;;;;;;;;143732;593;46010;-91
2021/08/29 02:35:08;;;;;;;9.70;4.62;;;;;;;;;;143732;600;46021;-89
2021/08/29 02:37:36;;;;;;;6.87;3.80;;;;;;;;;;143735;585;46010;-89
2021/08/29 02:40:07;;;;;;;7.32;3.90;;;;;;;;;;143733;600;46022;-92
2021/08/29 02:42:34;;;;;;;10.05;4.80;;;;;;;;;;143731;599;46010;-90
2021/08/29 02:45:08;;;;;;;9.82;4.50;;;;;;;;;;143731;598;47020;-92
2021/08/29 02:47:35;;;;;;;10.65;4.07;;;;;;;;;;143735;576;46010;-84
2021/08/29 02:50:21;;;;;;;12.18;4.00;;;;;;;;;;143737;595;45023;-85
2021/08/29 02:52:56;;;;;;;8.90;4.65;;;;;;;;;;143737;591;45020;-85
2021/08/29 02:55:29;;;;;;;15.82;5.25;;;;;;;;;;143736;597;45024;-83
2021/08/29 02:57:59;;;;;;;;;;;;;;;;;;143744;979;45021;-85
2021/08/29 03:00:37;;;;;;;14.00;5.13;;;;;;;;;;143741;644;45924;-86
2021/08/29 03:03:16;;;;;;;12.70;4.90;;;;;;;;;;143737;595;45021;-90
2021/08/29 03:05:55;;;;;;;8.77;4.07;;;;;;;;;;143737;601;45021;-83
2021/08/29 03:08:40;;;;;;;9.77;4.53;;;;;;;;;;143739;593;45020;-83
2021/08/29 03:11:21;;;;;;;10.27;5.18;;;;;;;;;;143736;610;46024;-83
2021/08/29 03:14:00;;;;;;;;;;;;;;;;;;143741;979;45918;-83
2021/08/29 03:17:01;;;;;;;9.63;4.25;;;;;;;;;;143750;644;45020;-90
2021/08/29 03:19:40;;;;;;;;;;;;;;;;;;143743;981;45021;-84
2021/08/29 03:22:30;;;;;;;11.38;4.90;;;;;;;;;;143750;606;46012;-83
2021/08/29 03:25:03;;;;;;;12.50;5.30;;;;;;;;;;143736;592;45918;-83
2021/08/29 03:27:48;;;;;;;11.05;4.85;;;;;;;;;;143738;683;45026;-84
2021/08/29 03:30:21;;;;;;;9.35;4.65;;;;;;;;;;143739;610;45020;-83
2021/08/29 03:32:52;;;;;;;11.50;5.53;;;;;;;;;;143737;584;45022;-91
2021/08/29 03:35:33;;;;;;;13.48;5.07;;;;;;;;;;143736;597;45919;-90
2021/08/29 03:38:35;;;;;;;8.40;4.32;;;;;;;;;;143737;635;45020;-83
2021/08/29 03:41:40;;;;;;;;;;;;;;;;;;;;;
2021/08/29 03:44:55;;;;;;;;;;;;;;;;;;;;;
2021/08/29 03:47:38;;;;;;;11.52;4.62;;;;;;;;;;143736;590;45916;-91
2021/08/29 03:50:48;;;;;;;11.43;5.53;;;;;;;;;;143736;587;45021;-89
2021/08/29 03:53:35;;;;;;;12.90;4.43;;;;;;;;;;143739;684;45020;-89
2021/08/29 03:56:29;;;;;;;9.73;4.68;;;;;;;;;;143737;590;45022;-90
2021/08/29 03:59:17;;;;;;;9.60;4.57;;;;;;;;;;143737;589;45020;-90
2021/08/29 04:02:04;;;;;;;8.98;4.78;;;;;;;;;;143737;627;45020;-90
2021/08/29 04:05:06;;;;;;;10.57;3.83;;;;;;;;;;143740;579;45021;-90
2021/08/29 04:07:42;;;;;;;9.27;4.53;;;;;;;;;;143738;639;45022;-91
2021/08/29 04:10:14;;;;;;;7.97;4.72;;;;;;;;;;143736;587;45918;-89
2021/08/29 04:12:44;;;;;;;11.10;4.80;;;;;;;;;;143739;609;45021;-91
2021/08/29 04:15:14;;;;;;;10.32;4.32;;;;;;;;;;143736;603;46020;-91
2021/08/29 04:17:43;;;;;;;10.45;4.72;;;;;;;;;;143735;601;46015;-89
2021/08/29 04:20:14;;;;;;;6.87;4.28;;;;;;;;;;143734;569;46012;-89
2021/08/29 04:22:43;;;;;;;12.20;4.60;;;;;;;;;;143733;566;46020;-90
2021/08/29 04:25:11;;;;;;;7.35;4.40;;;;;;;;;;143737;576;46021;-91
2021/08/29 04:27:38;;;;;;;13.88;5.12;;;;;;;;;;143735;651;46023;-90
2021/08/29 04:30:09;;;;;;;9.05;4.45;;;;;;;;;;143732;591;46020;-91
2021/08/29 04:32:38;;;;;;;13.48;4.07;;;;;;;;;;143734;570;46021;-89
2021/08/29 04:35:22;;;;;;;6.97;4.15;;;;;;;;;;143735;587;46012;-88
2021/08/29 04:37:51;;;;;;;7.97;4.12;;;;;;;;;;143735;610;46014;-91
2021/08/29 04:40:19;;;;;;;12.10;4.53;;;;;;;;;;143732;637;46013;-90
2021/08/29 04:42:57;;;;;;;12.63;4.97;;;;;;;;;;143734;579;46020;-90
2021/08/29 04:45:32;;;;;;;9.70;5.22;;;;;;;;;;143735;566;46012;-92
2021/08/29 04:47:59;;;;;;;12.50;5.12;;;;;;;;;;143734;583;46015;-92
2021/08/29 04:50:37;;;;;;;9.45;4.47;;;;;;;;;;143732;617;46917;-89
2021/08/29 04:53:24;;;;;;;7.22;4.70;;;;;;;;;;143735;641;46020;-89
2021/08/29 04:56:09;;;;;;;7.25;4.47;;;;;;;;;;143739;575;45021;-88
2021/08/29 04:58:49;;;;;;;;;;;;;;;;;;;;;
2021/08/29 05:01:17;;;;;;;13.30;5.30;;;;;;;;;;143734;570;46916;-88
2021/08/29 05:03:52;;;;;;;10.48;4.90;;;;;;;;;;143734;611;46021;-90
2021/08/29 05:06:28;;;;;;;12.32;4.78;;;;;;;;;;143735;569;46012;-90
2021/08/29 05:08:57;;;;;;;10.38;5.35;;;;;;;;;;143733;569;46022;-90
2021/08/29 05:11:27;;;;;;;8.13;4.47;;;;;;;;;;143733;565;46013;-91
2021/08/29 05:13:54;;;;;;;9.55;4.65;;;;;;;;;;143735;586;46020;-90
2021/08/29 05:16:31;;;;;;;12.32;4.97;;;;;;;;;;143736;564;46047;-92
2021/08/29 05:19:06;;;;;;;7.62;4.78;;;;;;;;;;143732;598;46049;-89
2021/08/29 05:21:37;;;;;;;6.03;4.12;;;;;;;;;;143732;594;46012;-89
2021/08/29 05:24:06;;;;;;;5.87;4.15;;;;;;;;;;143734;607;46021;-89
2021/08/29 05:26:33;;;;;;;8.73;3.90;;;;;;;;;;143736;565;46012;-91
2021/08/29 05:29:00;;;;;;;9.00;4.57;;;;;;;;;;143735;616;46020;-90
2021/08/29 05:31:27;;;;;;;6.53;4.35;;;;;;;;;;143736;636;45918;-89
2021/08/29 05:33:54;;;;;;;9.95;3.92;;;;;;;;;;143735;599;46021;-90
2021/08/29 05:36:21;;;;;;;6.35;3.90;;;;;;;;;;143736;580;46012;-90
2021/08/29 05:38:47;;;;;;;7.35;4.00;;;;;;;;;;143736;582;46022;-89
2021/08/29 05:41:15;;;;;;;7.30;3.90;;;;;;;;;;143733;638;46012;-91
2021/08/29 05:43:43;;;;;;;9.95;4.43;;;;;;;;;;143734;609;46020;-90
2021/08/29 05:46:09;;;;;;;13.65;4.57;;;;;;;;;;143737;577;46013;-91
2021/08/29 05:48:36;;;;;;;15.98;4.22;;;;;;;;;;143733;593;46023;-90
2021/08/29 05:51:03;;;;;;;6.95;4.28;;;;;;;;;;143733;571;46012;-93
2021/08/29 05:53:29;;;;;;;13.00;4.70;;;;;;;;;;143734;624;46020;-90
2021/08/29 05:55:59;;;;;;;8.90;3.60;;;;;;;;;;143736;611;46013;-91
2021/08/29 05:58:26;;;;;;;10.20;3.50;;;;;;;;;;143733;982;47022;-91
2021/08/29 06:00:54;;;;;;;7.53;3.58;;;;;;;;;;143737;588;46020;-88
2021/08/29 06:03:20;;;;;;;5.07;3.35;;;;;;;;;;143737;635;46021;-91
2021/08/29 06:05:47;;;;;;;8.60;4.20;;;;;;;;;;143736;923;46012;-90
2021/08/29 06:08:16;;;;;;;8.05;3.78;;;;;;;;;;143734;563;46022;-89
2021/08/29 06:10:43;;;;;;;6.57;3.75;;;;;;;;;;143733;712;46013;-90
2021/08/29 06:13:11;;;;;;;8.82;3.42;;;;;;;;;;143733;981;47020;-89
2021/08/29 06:15:39;;;;;;;4.75;3.80;;;;;;;;;;143737;802;47020;-92
2021/08/29 06:18:06;;;;;;;11.65;4.25;;;;;;;;;;143733;860;46021;-93
2021/08/29 06:20:34;;;;;;;8.75;3.42;;;;;;;;;;143733;605;46917;-90
2021/08/29 06:23:01;;;;;;;5.82;3.58;;;;;;;;;;143736;931;46015;-91
2021/08/29 06:25:28;;;;;;;8.13;3.53;;;;;;;;;;143736;646;46012;-90
2021/08/29 06:27:54;;;;;;;5.20;3.40;;;;;;;;;;143735;854;46020;-89
2021/08/29 06:30:22;;;;;;;5.72;3.65;;;;;;;;;;143736;593;46012;-90
2021/08/29 06:32:48;;;;;;;10.07;4.03;;;;;;;;;;143735;694;46021;-90
2021/08/29 06:35:15;;;;;;;5.30;3.40;;;;;;;;;;143735;564;46012;-90
2021/08/29 06:37:41;;;;;;;9.80;3.80;;;;;;;;;;143733;624;47022;-92
2021/08/29 06:40:19;;;;;;;10.38;4.35;;;;;;;;;;143734;582;46020;-91
2021/08/29 06:42:46;;;;;;;8.85;4.03;;;;;;;;;;143736;613;46020;-92
2021/08/29 06:45:13;;;;;;;6.30;3.78;;;;;;;;;;143736;604;46012;-90
2021/08/29 06:47:40;;;;;;;6.95;2.90;;;;;;;;;;143734;597;46022;-91
2021/08/29 06:50:07;;;;;;;8.95;4.10;;;;;;;;;;143735;588;46012;-92
2021/08/29 06:52:34;;;;;;;7.97;4.28;;;;;;;;;;143734;608;46020;-91
2021/08/29 06:55:01;;;;;;;7.32;4.78;;;;;;;;;;143738;606;46012;-89
2021/08/29 06:57:29;;;;;;;6.65;3.78;;;;;;;;;;143735;579;46014;-91
2021/08/29 06:59:56;;;;;;;9.40;4.25;;;;;;;;;;143734;595;46020;-90
2021/08/29 07:02:22;;;;;;;9.43;4.60;;;;;;;;;;143734;585;46015;-91
2021/08/29 07:04:49;;;;;;;9.68;4.07;;;;;;;;;;143736;618;46018;-90
2021/08/29 07:07:24;;;;;;;20.58;4.22;;;;;;;;;;143734;573;46020;-90
2021/08/29 07:09:51;;;;;;;5.93;3.33;;;;;;;;;;143736;586;46012;-91
2021/08/29 07:12:18;;;;;;;8.68;4.28;;;;;;;;;;143735;593;46014;-90
2021/08/29 07:14:44;;;;;;;15.02;4.30;;;;;;;;;;143736;564;46012;-89
2021/08/29 07:17:14;;;;;;;10.40;3.58;;;;;;;;;;143734;585;46022;-93
2021/08/29 07:19:41;;;;;;;10.73;3.53;;;;;;;;;;143735;575;46012;-91
2021/08/29 07:22:08;;;;;;;7.45;4.03;;;;;;;;;;143735;580;46020;-90
2021/08/29 07:24:35;;;;;;;9.45;3.90;;;;;;;;;;143738;565;46021;-90
2021/08/29 07:27:01;;;;;;;7.37;3.37;;;;;;;;;;143735;669;46020;-89
2021/08/29 07:29:30;;;;;;;10.05;3.67;;;;;;;;;;143733;588;46012;-89
2021/08/29 07:31:57;;;;;;;6.07;3.40;;;;;;;;;;143738;564;46021;-94
2021/08/29 07:34:25;;;;;;;12.10;4.82;;;;;;;;;;143736;688;47012;-91
2021/08/29 07:36:52;;;;;;;13.93;4.78;;;;;;;;;;143734;564;46022;-93
2021/08/29 07:39:19;;;;;;;6.90;4.12;;;;;;;;;;143737;742;45918;-91
2021/08/29 07:41:49;;;;;;;10.32;3.53;;;;;;;;;;143735;582;46020;-90
2021/08/29 07:44:16;;;;;;;5.55;3.47;;;;;;;;;;143739;598;45028;-89
2021/08/29 07:46:43;;;;;;;8.95;4.20;;;;;;;;;;143732;587;47022;-91
2021/08/29 07:49:09;;;;;;;6.22;3.80;;;;;;;;;;143736;614;46012;-90
2021/08/29 07:51:36;;;;;;;7.97;3.83;;;;;;;;;;143735;737;46020;-90
2021/08/29 07:54:03;;;;;;;7.37;3.85;;;;;;;;;;143736;567;46013;-91
2021/08/29 07:56:29;;;;;;;7.35;3.78;;;;;;;;;;143737;564;46020;-91
2021/08/29 07:58:56;;;;;;;6.53;4.32;;;;;;;;;;143734;585;46014;-89
2021/08/29 08:01:23;;;;;;;9.35;4.00;;;;;;;;;;143736;597;46021;-91
2021/08/29 08:03:50;;;;;;;8.90;4.00;;;;;;;;;;143736;585;46012;-91
2021/08/29 08:06:17;;;;;;;6.22;4.10;;;;;;;;;;143732;747;46014;-88
2021/08/29 08:08:44;;;;;;;12.27;3.92;;;;;;;;;;143733;591;46013;-91
2021/08/29 08:11:19;;;;;;;8.82;3.83;;;;;;;;;;143737;574;46014;-91
2021/08/29 08:13:46;;;;;;;6.15;3.60;;;;;;;;;;143739;598;46012;-93
2021/08/29 08:16:13;;;;;;;10.32;3.80;;;;;;;;;;143737;675;46022;-93
2021/08/29 08:18:47;;;;;;;5.50;3.28;;;;;;;;;;143738;575;45918;-89
2021/08/29 08:21:14;;;;;;;6.10;3.50;;;;;;;;;;143736;599;46020;-90
2021/08/29 08:23:41;;;;;;;9.63;4.12;;;;;;;;;;143736;581;46020;-91
2021/08/29 08:26:08;;;;;;;4.57;3.72;;;;;;;;;;143734;964;46042;-90
2021/08/29 08:28:34;;;;;;;9.07;3.75;;;;;;;;;;143737;563;46014;-91
2021/08/29 08:31:01;;;;;;;6.95;3.95;;;;;;;;;;143734;632;46029;-92
2021/08/29 08:33:53;;;;;;;8.23;3.87;;;;;;;;;;143739;585;46012;-91
2021/08/29 08:36:51;;;;;;;5.03;3.33;;;;;;;;;;143739;584;45022;-91
2021/08/29 08:39:20;;;;;;;7.45;3.45;;;;;;;;;;143738;570;45920;-92
2021/08/29 08:41:49;;;;;;;11.30;3.30;;;;;;;;;;143737;586;46020;-91
2021/08/29 08:44:18;;;;;;;5.90;3.67;;;;;;;;;;143738;594;46012;-91
2021/08/29 08:46:46;;;;;;;6.85;3.30;;;;;;;;;;143735;668;46021;-88
2021/08/29 08:49:16;;;;;;;9.57;3.45;;;;;;;;;;143734;695;46920;-91
2021/08/29 08:51:46;;;;;;;6.37;3.53;;;;;;;;;;143737;716;46020;-91
2021/08/29 08:54:16;;;;;;;6.90;3.58;;;;;;;;;;143735;594;46012;-91
2021/08/29 08:56:43;;;;;;;9.15;3.70;;;;;;;;;;143736;576;46020;-90
2021/08/29 08:59:10;;;;;;;4.90;3.28;;;;;;;;;;143735;657;46012;-89
2021/08/29 09:01:36;;;;;;;7.90;4.03;;;;;;;;;;143738;735;46021;-90
2021/08/29 09:04:05;;;;;;;5.70;3.20;;;;;;;;;;143737;565;46020;-91
2021/08/29 09:06:34;;;;;;;7.47;3.58;;;;;;;;;;143732;597;47020;-90
2021/08/29 09:09:03;;;;;;;7.75;3.55;;;;;;;;;;143732;586;46920;-94
2021/08/29 09:11:35;;;;;;;6.35;3.67;;;;;;;;;;143736;569;47020;-90
2021/08/29 09:14:02;;;;;;;8.55;3.97;;;;;;;;;;143736;577;46012;-89
2021/08/29 09:16:29;;;;;;;8.20;3.35;;;;;;;;;;143736;581;46021;-89
2021/08/29 09:19:01;;;;;;;6.93;3.35;;;;;;;;;;143733;592;46012;-89
2021/08/29 09:21:35;;;;;;;5.07;3.00;;;;;;;;;;143736;566;46018;-91
2021/08/29 09:24:07;;;;;;;6.55;3.25;;;;;;;;;;143740;577;46021;-91
2021/08/29 09:26:43;;;;;;;5.82;3.17;;;;;;;;;;143733;966;47022;-92
2021/08/29 09:29:22;;;;;;;6.37;3.17;;;;;;;;;;143734;749;46920;-91
2021/08/29 09:31:52;;;;;;;7.90;4.20;;;;;;;;;;143737;569;46021;-91
2021/08/29 09:34:23;;;;;;;7.60;4.15;;;;;;;;;;143735;565;46020;-90
2021/08/29 09:37:00;;;;;;;5.97;3.72;;;;;;;;;;143734;567;46022;-92
2021/08/29 09:39:27;;;;;;;6.03;3.62;;;;;;;;;;143732;794;46013;-93
2021/08/29 09:42:02;;;;;;;7.15;3.30;;;;;;;;;;143735;603;46020;-92
2021/08/29 09:44:33;;;;;;;5.22;3.65;;;;;;;;;;143737;629;46026;-91
2021/08/29 09:47:03;;;;;;;12.30;4.20;;;;;;;;;;143736;576;46023;-90
2021/08/29 09:49:36;;;;;;;9.98;3.83;;;;;;;;;;143732;597;46919;-91
2021/08/29 09:52:06;;;;;;;4.82;2.45;;;;;;;;;;143738;570;46020;-92
2021/08/29 09:54:43;;;;;;;4.78;3.42;;;;;;;;;;143737;593;46013;-93
2021/08/29 09:57:12;;;;;;;8.27;3.42;;;;;;;;;;143734;569;46022;-93
2021/08/29 09:59:56;;;;;;;6.35;2.90;;;;;;;;;;143736;647;46012;-90
2021/08/29 10:02:30;;;;;;;7.80;3.55;;;;;;;;;;143736;666;46021;-91
2021/08/29 10:05:15;;;;;;;4.68;3.17;;;;;;;;;;143736;742;46012;-92
2021/08/29 10:08:06;;;;;;;4.95;3.33;;;;;;;;;;143734;640;46024;-91
2021/08/29 10:10:36;;;;;;;5.55;2.97;;;;;;;;;;143736;724;46012;-93
2021/08/29 10:13:03;;;;;;;6.80;3.03;;;;;;;;;;143734;574;46014;-92
2021/08/29 10:15:31;;;;;;;6.65;3.53;;;;;;;;;;143737;615;46012;-92
2021/08/29 10:18:01;;;;;;;5.50;3.47;;;;;;;;;;143734;580;46023;-92
2021/08/29 10:20:30;;;;;;;6.00;3.35;;;;;;;;;;143736;578;45920;-89
2021/08/29 10:22:59;;;;;;;5.62;3.03;;;;;;;;;;143734;564;46021;-90
2021/08/29 10:25:25;;;;;;;9.73;3.33;;;;;;;;;;143736;564;46012;-93
2021/08/29 10:28:02;;;;;;;7.87;3.42;;;;;;;;;;143732;573;46044;-91
2021/08/29 10:30:33;;;;;;;5.60;3.10;;;;;;;;;;143734;630;46013;-92
2021/08/29 10:33:04;;;;;;;5.43;3.47;;;;;;;;;;143733;564;46020;-91
2021/08/29 10:35:32;;;;;;;11.70;3.95;;;;;;;;;;143735;578;46012;-90
2021/08/29 10:38:00;;;;;;;8.35;4.35;;;;;;;;;;143733;641;46022;-91
2021/08/29 10:40:28;;;;;;;6.32;3.80;;;;;;;;;;143731;587;46020;-92
2021/08/29 10:42:58;;;;;;;6.87;3.22;;;;;;;;;;143734;707;46020;-91
2021/08/29 10:45:25;;;;;;;5.72;3.35;;;;;;;;;;143734;574;46019;-90
2021/08/29 10:47:53;;;;;;;6.80;3.60;;;;;;;;;;143735;607;46020;-92
2021/08/29 10:50:20;;;;;;;4.12;3.08;;;;;;;;;;143731;586;46012;-93
2021/08/29 10:52:47;;;;;;;5.97;3.17;;;;;;;;;;143735;699;46021;-91
2021/08/29 10:55:18;;;;;;;5.60;2.80;;;;;;;;;;143737;566;46020;-90
2021/08/29 10:57:46;;;;;;;5.35;3.33;;;;;;;;;;143732;687;46022;-92
2021/08/29 11:00:26;;;;;;;10.77;3.53;;;;;;;;;;143731;586;46013;-90
2021/08/29 11:02:54;;;;;;;8.43;3.28;;;;;;;;;;143734;572;46020;-91
2021/08/29 11:05:54;;;;;;;5.50;3.20;;;;;;;;;;143735;593;46020;-91
2021/08/29 11:08:27;;;;;;;4.18;3.25;;;;;;;;;;143732;577;46024;-91
2021/08/29 11:10:54;;;;;;;5.28;3.37;;;;;;;;;;143732;564;46919;-91
2021/08/29 11:13:38;;;;;;;6.65;3.22;;;;;;;;;;143732;653;46020;-90
2021/08/29 11:16:24;;;;;;;4.93;3.33;;;;;;;;;;143735;583;46012;-90
2021/08/29 11:19:36;;;;;;;4.90;3.10;;;;;;;;;;143734;598;46020;-90
2021/08/29 11:22:14;;;;;;;7.65;3.28;;;;;;;;;;143732;564;47021;-68
2021/08/29 11:25:14;;;;;;;9.25;3.37;;;;;;;;;;143732;599;47021;-68
2021/08/29 11:27:48;;;;;;;4.70;3.33;;;;;;;;;;143734;663;46018;-66
2021/08/29 11:30:18;;;;;;;7.03;3.60;;;;;;;;;;143731;655;46022;-68
2021/08/29 11:33:26;;;;;;;6.55;3.20;;;;;;;;;;143732;589;46012;-66
2021/08/29 11:35:54;;;;;;;7.78;3.75;;;;;;;;;;143734;564;46020;-69
2021/08/29 11:38:38;;;;;;;4.57;3.22;;;;;;;;;;143733;577;46013;-68
2021/08/29 11:41:15;;;;;;;7.47;4.18;;;;;;;;;;143729;591;46022;-69
2021/08/29 11:43:49;;;;;;;6.32;4.60;;;;;;;;;;143730;586;46012;-67
2021/08/29 11:46:19;;;;;;;9.93;4.97;;;;;;;;;;143733;618;46021;-67
2021/08/29 11:49:06;;;;;;;6.80;3.37;;;;;;;;;;143733;641;46012;-68
2021/08/29 11:51:37;;;;;;;7.07;4.00;;;;;;;;;;143735;621;46021;-67
2021/08/29 11:54:06;;;;;;;8.98;3.37;;;;;;;;;;143730;585;46012;-69
2021/08/29 11:56:34;;;;;;;7.40;3.83;;;;;;;;;;143732;650;46020;-67
2021/08/29 11:59:07;;;;;;;9.55;3.78;;;;;;;;;;143734;611;46013;-68
2021/08/29 12:01:35;;;;;;;6.70;3.50;;;;;;;;;;143732;570;46023;-68
2021/08/29 12:04:03;;;;;;;9.93;3.42;;;;;;;;;;143733;579;46012;-68
2021/08/29 12:07:01;;;;;;;5.72;2.60;;;;;;;;;;143733;599;46020;-68
2021/08/29 12:09:33;;;;;;;6.03;2.87;;;;;;;;;;143733;566;46012;-68
2021/08/29 12:12:01;;;;;;;4.32;2.67;;;;;;;;;;143734;563;46045;-69
2021/08/29 12:14:29;;;;;;;4.43;2.30;;;;;;;;;;143732;650;46012;-67
2021/08/29 12:16:58;;;;;;;6.50;3.22;;;;;;;;;;143732;624;46020;-69
2021/08/29 12:19:33;;;;;;;6.62;3.40;;;;;;;;;;143734;569;46012;-67
2021/08/29 12:22:01;;;;;;;4.90;3.17;;;;;;;;;;143730;564;46022;-68
2021/08/29 12:24:33;;;;;;;6.62;2.95;;;;;;;;;;143731;581;46012;-67
2021/08/29 12:27:14;;;;;;;7.25;2.65;;;;;;;;;;143734;575;47018;-67
2021/08/29 12:29:46;;;;;;;5.28;2.97;;;;;;;;;;143734;570;46013;-68
2021/08/29 12:32:15;;;;;;;5.55;2.83;;;;;;;;;;143731;632;47023;-68
2021/08/29 12:34:49;;;;;;;8.27;3.08;;;;;;;;;;143734;601;46020;-68
2021/08/29 12:37:16;;;;;;;3.70;3.10;;;;;;;;;;143733;582;46021;-67
2021/08/29 12:40:05;;;;;;;5.35;2.90;;;;;;;;;;143733;648;46012;-67
2021/08/29 12:42:37;;;;;;;7.20;3.35;;;;;;;;;;143732;611;46916;-68
2021/08/29 12:45:06;;;;;;;9.50;3.28;;;;;;;;;;143730;571;46013;-68
2021/08/29 12:47:33;;;;;;;4.97;2.85;;;;;;;;;;143731;590;46020;-68
2021/08/29 12:50:03;;;;;;;7.53;3.12;;;;;;;;;;143734;569;46012;-67
2021/08/29 12:52:38;;;;;;;5.93;3.22;;;;;;;;;;143732;577;46022;-67
2021/08/29 12:55:10;;;;;;;6.05;3.35;;;;;;;;;;143730;590;46012;-68
2021/08/29 12:57:37;;;;;;;5.82;2.83;;;;;;;;;;143731;636;47020;-67
2021/08/29 13:00:05;;;;;;;8.15;3.37;;;;;;;;;;143734;621;46012;-67
2021/08/29 13:02:41;;;;;;;8.38;2.90;;;;;;;;;;143731;623;47022;-67
2021/08/29 13:05:09;;;;;;;8.82;3.40;;;;;;;;;;143731;602;46012;-68
2021/08/29 13:07:53;;;;;;;7.93;2.95;;;;;;;;;;143732;567;46021;-68
2021/08/29 13:10:21;;;;;;;10.07;3.50;;;;;;;;;;143733;586;46012;-70
2021/08/29 13:13:01;;;;;;;5.47;2.80;;;;;;;;;;143731;576;47022;-67
2021/08/29 13:15:29;;;;;;;5.30;2.62;;;;;;;;;;143730;591;46012;-68
2021/08/29 13:17:56;;;;;;;6.15;2.90;;;;;;;;;;143734;628;46020;-66
2021/08/29 13:20:41;;;;;;;3.72;2.28;;;;;;;;;;143734;644;46013;-68
2021/08/29 13:23:29;;;;;;;5.80;3.53;;;;;;;;;;143730;591;47020;-67
2021/08/29 13:25:58;;;;;;;6.75;2.65;;;;;;;;;;143732;616;46920;-68
2021/08/29 13:28:26;;;;;;;4.75;2.75;;;;;;;;;;143734;642;46021;-67
2021/08/29 13:31:07;;;;;;;11.63;2.87;;;;;;;;;;143732;676;46012;-67
2021/08/29 13:33:36;;;;;;;3.92;2.78;;;;;;;;;;143732;586;47022;-67
2021/08/29 13:36:07;;;;;;;7.95;2.40;;;;;;;;;;143731;634;46921;-66
2021/08/29 13:38:35;;;;;;;5.50;2.60;;;;;;;;;;143731;591;46020;-67
2021/08/29 13:41:03;;;;;;;5.72;2.75;;;;;;;;;;143733;569;46012;-66
2021/08/29 13:43:34;;;;;;;8.35;2.78;;;;;;;;;;143732;576;46022;-68
2021/08/29 13:46:03;;;;;;;8.52;2.80;;;;;;;;;;143731;581;46012;-66
2021/08/29 13:48:30;;;;;;;3.70;2.55;;;;;;;;;;143733;580;47020;-69
2021/08/29 13:50:58;;;;;;;6.20;2.70;;;;;;;;;;143732;583;46013;-68
2021/08/29 13:53:33;;;;;;;4.35;2.65;;;;;;;;;;143732;616;47020;-66
2021/08/29 13:56:01;;;;;;;5.15;2.55;;;;;;;;;;143729;608;46012;-68
2021/08/29 13:58:28;;;;;;;5.30;2.65;;;;;;;;;;143733;577;47021;-67
2021/08/29 14:00:56;;;;;;;5.00;2.80;;;;;;;;;;143733;581;46012;-66
2021/08/29 14:03:24;;;;;;;4.20;3.08;;;;;;;;;;143732;573;46022;-67
2021/08/29 14:05:50;;;;;;;3.65;2.62;;;;;;;;;;143730;677;46013;-68
2021/08/29 14:08:17;;;;;;;11.07;2.97;;;;;;;;;;143733;625;46021;-68
2021/08/29 14:10:44;;;;;;;5.90;2.95;;;;;;;;;;143733;608;46012;-66
2021/08/29 14:13:10;;;;;;;5.03;2.87;;;;;;;;;;143731;564;46022;-67
2021/08/29 14:15:37;;;;;;;6.60;3.62;;;;;;;;;;143731;598;46012;-69
2021/08/29 14:18:04;;;;;;;10.90;3.05;;;;;;;;;;143734;590;46020;-69
2021/08/29 14:20:31;;;;;;;8.30;3.70;;;;;;;;;;143734;572;46013;-67
2021/08/29 14:22:58;;;;;;;4.00;2.65;;;;;;;;;;143732;589;46023;-66
2021/08/29 14:25:25;;;;;;;6.20;3.22;;;;;;;;;;143732;629;46012;-68
2021/08/29 14:27:52;;;;;;;7.80;3.92;;;;;;;;;;143729;570;46021;-66
2021/08/29 14:30:29;;;;;;;7.55;2.92;;;;;;;;;;143733;564;46012;-67
2021/08/29 14:32:57;;;;;;;6.55;3.60;;;;;;;;;;143732;584;46045;-67
2021/08/29 14:35:25;;;;;;;10.95;3.62;;;;;;;;;;143731;572;46013;-68
2021/08/29 14:37:52;;;;;;;6.87;2.97;;;;;;;;;;143735;589;46020;-66
2021/08/29 14:40:21;;;;;;;8.27;3.83;;;;;;;;;;143733;656;46020;-68
2021/08/29 14:42:48;;;;;;;6.90;3.60;;;;;;;;;;143730;713;47022;-66
2021/08/29 14:45:15;;;;;;;9.52;3.78;;;;;;;;;;143731;611;46012;-68
2021/08/29 14:47:42;;;;;;;7.85;3.80;;;;;;;;;;143733;607;47020;-68
2021/08/29 14:50:10;;;;;;;9.40;4.40;;;;;;;;;;143734;566;46019;-67
2021/08/29 14:52:37;;;;;;;9.52;3.65;;;;;;;;;;143729;578;47020;-68
2021/08/29 14:55:08;;;;;;;8.77;4.00;;;;;;;;;;143731;708;46920;-68
2021/08/29 14:57:34;;;;;;;8.43;2.67;;;;;;;;;;143730;610;47020;-67
2021/08/29 15:00:01;;;;;;;9.23;4.05;;;;;;;;;;143733;589;46013;-67
2021/08/29 15:02:27;;;;;;;8.52;3.53;;;;;;;;;;143732;675;46022;-67
2021/08/29 15:04:54;;;;;;;5.55;3.25;;;;;;;;;;143729;607;46012;-67
2021/08/29 15:07:20;;;;;;;8.30;3.37;;;;;;;;;;143733;569;46020;-68
2021/08/29 15:09:47;;;;;;;7.65;3.17;;;;;;;;;;143735;601;46018;-67